Fly something new…

Today I continued to fly something new this season: a Diamond Katana DV20. It’s called ‘familiarization’, because handling this aircraft is slightly different compared to thoseĀ I have flown in the past 25 years. The weather was brilliant: LSZH 271450Z VRB03KT CAVOK 17/04 Q1021 NOSIG Welcome on board: This is the cockpit: And here you see Read More …

Greetings from my Homebase LSZF

Hi There! Snowy Greetings from my current homebase Birrfeld (LSZF) and I wish all of you Happy New Year – and many Happy Landings to the Pilots and Passangers too. Following images are a view from the runway East to West and the area north of the aiport.     Best Regards – Karsten

Fascination of Aviation

Before I started to learn to fly, sitting in airplanes was already common for me. One of many hundred passengers in the economy class of commercial aircraft, flying long distances between Europe and Afrika. Sometimes the flights were smooth, other times they were more bumpy – please fasten your seatbelts! I always like to sit Read More …

Hello world!

Welcome to my WordPress site. Here I share my experience as Private Pilot and Aircraft Mechanic. I fly since I am 22 years old and have international flight experience in America, Europe, Afrika and Australia.